Hanseatic Scout — V2BM2 — position and weather

sailwx.info

Track history (hours):
 
Tides and Currents Weather Stations Pressure Air Temp Water Temp Dewpoint Dewpoint Depression Visibility Wind Speed Wind Dir Waves Ship Positions

Hanseatic Scout

Last reported at 2014-Aug-21 19:31 UTC. Time now 2014-Aug-21 20:05 UTC.
Position N 52°02' E 001°10'.

Length 89 m; draft 4.3 m.

Type: Ship (hazmat cat C). MMSI: 304867000.

Date/timePositionNaut miles runAvg speedWind from/ knotsBaromVisibWave heightAir tempDewpointWater temp
2014-Aug-21 19:31N 52°02' E 001°10'0 0.0
2014-Aug-21 18:31N 52°02' E 001°10'0 0.0
2014-Aug-21 17:31N 52°02' E 001°10'0 0.0
2014-Aug-21 16:28N 52°02' E 001°10'0 0.0
2014-Aug-21 15:31N 52°02' E 001°10'0 0.0
2014-Aug-21 14:31N 52°02' E 001°10'0 0.0
2014-Aug-21 13:31N 52°02' E 001°10'0 0.0
2014-Aug-21 12:31N 52°02' E 001°10'0 0.0
2014-Aug-21 11:31N 52°02' E 001°10'0 0.0
2014-Aug-21 10:31N 52°02' E 001°10'0 0.0
2014-Aug-21 09:28N 52°02' E 001°10'0 0.0
2014-Aug-21 08:31N 52°02' E 001°10'0 0.0
2014-Aug-21 07:31N 52°02' E 001°10'0 0.0
2014-Aug-21 06:31N 52°02' E 001°10'0 0.0
2014-Aug-21 05:31N 52°02' E 001°10'0 0.0
2014-Aug-21 04:31N 52°02' E 001°10'0 0.0
2014-Aug-21 03:31N 52°02' E 001°10'0 0.0
2014-Aug-21 02:31N 52°02' E 001°10'0 0.0
2014-Aug-21 01:31N 52°02' E 001°10'0 0.0
2014-Aug-21 00:31N 52°02' E 001°10'0 0.0
2014-Aug-20 23:31N 52°02' E 001°10'0 0.0
2014-Aug-20 22:31N 52°02' E 001°10'0 0.0
2014-Aug-20 21:31N 52°02' E 001°10'0 0.0
2014-Aug-20 20:31N 52°02' E 001°10'0 0.0
2014-Aug-20 19:31N 52°02' E 001°10'0 0.0
2014-Aug-20 18:31N 52°02' E 001°10'0 0.0
2014-Aug-20 17:31N 52°02' E 001°10'0 0.0
2014-Aug-20 16:31N 52°02' E 001°10'0 0.1
2014-Aug-20 15:31N 52°02' E 001°10'0 0.0
2014-Aug-20 14:31N 52°02' E 001°10'0 0.0
2014-Aug-20 13:31N 52°02' E 001°10'0 0.0
2014-Aug-20 12:31N 52°02' E 001°10'3 3.4
2014-Aug-20 11:33N 51°60' E 001°13'7 7.2
2014-Aug-20 10:33N 51°56' E 001°23'8 7.7
2014-Aug-20 09:33N 51°59' E 001°34'4 4.4
2014-Aug-20 08:33N 52°02' E 001°38'6 6.3
2014-Aug-20 07:33N 52°02' E 001°49'6 6.2
2014-Aug-20 06:33N 52°02' E 001°59'7 6.5
2014-Aug-20 05:33N 52°02' E 002°09'54 8.9
2014-Aug-19 23:32N 52°04' E 003°37'8 7.8
2014-Aug-19 22:33N 52°04' E 003°49'7 6.7
2014-Aug-19 21:34N 52°01' E 003°59'10 9.6
2014-Aug-19 20:33N 51°56' E 004°12'9 9.3
2014-Aug-19 19:34N 51°51' E 004°24'9 9.5
2014-Aug-19 18:34N 51°46' E 004°38'5 4.2
2014-Aug-19 17:28N 51°41' E 004°36'0 0.0
2014-Aug-19 16:28N 51°41' E 004°36'0 0.0
2014-Aug-19 15:28N 51°41' E 004°36'0 0.0
2014-Aug-19 14:28N 51°41' E 004°36'0 0.0
2014-Aug-19 13:28N 51°41' E 004°36'0 0.0
2014-Aug-19 12:28N 51°41' E 004°36'0 0.0
2014-Aug-19 11:31N 51°41' E 004°36'0 0.0
2014-Aug-19 10:28N 51°41' E 004°36'0 0.0
2014-Aug-19 09:28N 51°41' E 004°36'0 0.0
2014-Aug-19 08:28N 51°41' E 004°36'0 0.0
2014-Aug-19 07:31N 51°41' E 004°36'0 0.0
2014-Aug-19 06:31N 51°41' E 004°36'0 0.0
2014-Aug-19 05:28N 51°41' E 004°36'0 0.0
2014-Aug-19 04:31N 51°41' E 004°36'0 0.0
2014-Aug-19 03:28N 51°41' E 004°36'0 0.0
2014-Aug-19 02:31N 51°41' E 004°36'0 0.0
2014-Aug-19 01:28N 51°41' E 004°36'0 0.0
2014-Aug-19 00:28N 51°41' E 004°36'0 0.0
2014-Aug-18 23:31N 51°41' E 004°36'0 0.0
2014-Aug-18 22:28N 51°41' E 004°36'0 0.0
2014-Aug-18 21:28N 51°41' E 004°36'0 0.0
2014-Aug-18 20:31N 51°41' E 004°36'0 0.0
2014-Aug-18 19:28N 51°41' E 004°36'0 0.0
2014-Aug-18 18:31N 51°41' E 004°36'0 0.0
2014-Aug-18 17:28N 51°41' E 004°36'0 0.0
2014-Aug-18 16:31N 51°41' E 004°36'0 0.0
2014-Aug-18 15:31N 51°41' E 004°36'0 0.0
2014-Aug-18 14:28N 51°41' E 004°36'0 0.0
2014-Aug-18 13:28N 51°41' E 004°36'0 0.0
2014-Aug-18 12:22N 51°41' E 004°36'0 0.0
2014-Aug-18 11:31N 51°41' E 004°36'0 0.0
2014-Aug-18 10:31N 51°41' E 004°36'0 0.0
2014-Aug-18 09:29N 51°41' E 004°36'0 0.0
2014-Aug-18 07:29N 51°41' E 004°36'0 0.0
2014-Aug-18 06:33N 51°41' E 004°36'5 5.3
2014-Aug-18 05:33N 51°46' E 004°38'7 6.6
2014-Aug-18 04:33N 51°50' E 004°29'7 6.5
2014-Aug-18 03:33N 51°53' E 004°19'7 7.5
2014-Aug-18 02:33N 51°57' E 004°09'7 7.3
2014-Aug-18 01:33N 51°60' E 003°58'7 6.8
2014-Aug-18 00:33N 51°60' E 003°47'55 9.2
2014-Aug-17 18:33N 51°37' E 002°26'1211.0
2014-Aug-17 17:27N 51°28' E 002°14'1410.6
2014-Aug-17 16:07N 51°15' E 002°05'610.0
2014-Aug-17 15:33N 51°11' E 001°58'1010.2
2014-Aug-17 14:33N 51°06' E 001°44'9 9.4
2014-Aug-17 13:33N 50°59' E 001°34'8 7.9
2014-Aug-17 12:33N 50°53' E 001°26'33 7.8
2014-Aug-17 08:20N 50°28' E 000°52'8 8.9
2014-Aug-17 07:29N 50°26' E 000°41'8 8.9
2014-Aug-17 06:33N 50°24' E 000°28'10 9.0
2014-Aug-17 05:24N 50°21' E 000°12'  
Track history (hours):
 
Tides and Currents Weather Stations Pressure Air Temp Water Temp Dewpoint Dewpoint Depression Visibility Wind Speed Wind Dir Waves Ship Positions

Hanseatic Scout

Last reported at 2014-Aug-21 19:31 UTC. Time now 2014-Aug-21 20:05 UTC.
Position N 52°02' E 001°10'.

Length 89 m; draft 4.3 m.

Type: Ship (hazmat cat C). MMSI: 304867000.

Date/timePositionNaut miles runAvg speedWind from/ knotsBaromVisibWave heightAir tempDewpointWater temp
2014-Aug-21 19:31N 52°02' E 001°10'0 0.0
2014-Aug-21 18:31N 52°02' E 001°10'0 0.0
2014-Aug-21 17:31N 52°02' E 001°10'0 0.0
2014-Aug-21 16:28N 52°02' E 001°10'0 0.0
2014-Aug-21 15:31N 52°02' E 001°10'0 0.0
2014-Aug-21 14:31N 52°02' E 001°10'0 0.0
2014-Aug-21 13:31N 52°02' E 001°10'0 0.0
2014-Aug-21 12:31N 52°02' E 001°10'0 0.0
2014-Aug-21 11:31N 52°02' E 001°10'0 0.0
2014-Aug-21 10:31N 52°02' E 001°10'0 0.0
2014-Aug-21 09:28N 52°02' E 001°10'0 0.0
2014-Aug-21 08:31N 52°02' E 001°10'0 0.0
2014-Aug-21 07:31N 52°02' E 001°10'0 0.0
2014-Aug-21 06:31N 52°02' E 001°10'0 0.0
2014-Aug-21 05:31N 52°02' E 001°10'0 0.0
2014-Aug-21 04:31N 52°02' E 001°10'0 0.0
2014-Aug-21 03:31N 52°02' E 001°10'0 0.0
2014-Aug-21 02:31N 52°02' E 001°10'0 0.0
2014-Aug-21 01:31N 52°02' E 001°10'0 0.0
2014-Aug-21 00:31N 52°02' E 001°10'0 0.0
2014-Aug-20 23:31N 52°02' E 001°10'0 0.0
2014-Aug-20 22:31N 52°02' E 001°10'0 0.0
2014-Aug-20 21:31N 52°02' E 001°10'0 0.0
2014-Aug-20 20:31N 52°02' E 001°10'0 0.0
2014-Aug-20 19:31N 52°02' E 001°10'0 0.0
2014-Aug-20 18:31N 52°02' E 001°10'0 0.0
2014-Aug-20 17:31N 52°02' E 001°10'0 0.0
2014-Aug-20 16:31N 52°02' E 001°10'0 0.1
2014-Aug-20 15:31N 52°02' E 001°10'0 0.0
2014-Aug-20 14:31N 52°02' E 001°10'0 0.0
2014-Aug-20 13:31N 52°02' E 001°10'0 0.0
2014-Aug-20 12:31N 52°02' E 001°10'3 3.4
2014-Aug-20 11:33N 51°60' E 001°13'7 7.2
2014-Aug-20 10:33N 51°56' E 001°23'8 7.7
2014-Aug-20 09:33N 51°59' E 001°34'4 4.4
2014-Aug-20 08:33N 52°02' E 001°38'6 6.3
2014-Aug-20 07:33N 52°02' E 001°49'6 6.2
2014-Aug-20 06:33N 52°02' E 001°59'7 6.5
2014-Aug-20 05:33N 52°02' E 002°09'54 8.9
2014-Aug-19 23:32N 52°04' E 003°37'8 7.8
2014-Aug-19 22:33N 52°04' E 003°49'7 6.7
2014-Aug-19 21:34N 52°01' E 003°59'10 9.6
2014-Aug-19 20:33N 51°56' E 004°12'9 9.3
2014-Aug-19 19:34N 51°51' E 004°24'9 9.5
2014-Aug-19 18:34N 51°46' E 004°38'5 4.2
2014-Aug-19 17:28N 51°41' E 004°36'0 0.0
2014-Aug-19 16:28N 51°41' E 004°36'0 0.0
2014-Aug-19 15:28N 51°41' E 004°36'0 0.0
2014-Aug-19 14:28N 51°41' E 004°36'0 0.0
2014-Aug-19 13:28N 51°41' E 004°36'0 0.0
2014-Aug-19 12:28N 51°41' E 004°36'0 0.0
2014-Aug-19 11:31N 51°41' E 004°36'0 0.0
2014-Aug-19 10:28N 51°41' E 004°36'0 0.0
2014-Aug-19 09:28N 51°41' E 004°36'0 0.0
2014-Aug-19 08:28N 51°41' E 004°36'0 0.0
2014-Aug-19 07:31N 51°41' E 004°36'0 0.0
2014-Aug-19 06:31N 51°41' E 004°36'0 0.0
2014-Aug-19 05:28N 51°41' E 004°36'0 0.0
2014-Aug-19 04:31N 51°41' E 004°36'0 0.0
2014-Aug-19 03:28N 51°41' E 004°36'0 0.0
2014-Aug-19 02:31N 51°41' E 004°36'0 0.0
2014-Aug-19 01:28N 51°41' E 004°36'0 0.0
2014-Aug-19 00:28N 51°41' E 004°36'0 0.0
2014-Aug-18 23:31N 51°41' E 004°36'0 0.0
2014-Aug-18 22:28N 51°41' E 004°36'0 0.0
2014-Aug-18 21:28N 51°41' E 004°36'0 0.0
2014-Aug-18 20:31N 51°41' E 004°36'0 0.0
2014-Aug-18 19:28N 51°41' E 004°36'0 0.0
2014-Aug-18 18:31N 51°41' E 004°36'0 0.0
2014-Aug-18 17:28N 51°41' E 004°36'0 0.0
2014-Aug-18 16:31N 51°41' E 004°36'0 0.0
2014-Aug-18 15:31N 51°41' E 004°36'0 0.0
2014-Aug-18 14:28N 51°41' E 004°36'0 0.0
2014-Aug-18 13:28N 51°41' E 004°36'0 0.0
2014-Aug-18 12:22N 51°41' E 004°36'0 0.0
2014-Aug-18 11:31N 51°41' E 004°36'0 0.0
2014-Aug-18 10:31N 51°41' E 004°36'0 0.0
2014-Aug-18 09:29N 51°41' E 004°36'0 0.0
2014-Aug-18 07:29N 51°41' E 004°36'0 0.0
2014-Aug-18 06:33N 51°41' E 004°36'5 5.3
2014-Aug-18 05:33N 51°46' E 004°38'7 6.6
2014-Aug-18 04:33N 51°50' E 004°29'7 6.5
2014-Aug-18 03:33N 51°53' E 004°19'7 7.5
2014-Aug-18 02:33N 51°57' E 004°09'7 7.3
2014-Aug-18 01:33N 51°60' E 003°58'7 6.8
2014-Aug-18 00:33N 51°60' E 003°47'55 9.2
2014-Aug-17 18:33N 51°37' E 002°26'1211.0
2014-Aug-17 17:27N 51°28' E 002°14'1410.6
2014-Aug-17 16:07N 51°15' E 002°05'610.0
2014-Aug-17 15:33N 51°11' E 001°58'1010.2
2014-Aug-17 14:33N 51°06' E 001°44'9 9.4
2014-Aug-17 13:33N 50°59' E 001°34'8 7.9
2014-Aug-17 12:33N 50°53' E 001°26'33 7.8
2014-Aug-17 08:20N 50°28' E 000°52'8 8.9
2014-Aug-17 07:29N 50°26' E 000°41'8 8.9
2014-Aug-17 06:33N 50°24' E 000°28'10 9.0
2014-Aug-17 05:24N 50°21' E 000°12'  

Dump ship's entire track history